Time;durP1;ratioP1;P1;durP2;ratioP2;P2;SDS_P1;SDS_P2;PMS_P1;PMS_P2;Temp;Humidity;BMP_temperature;BMP_pressure;BME280_temperature;BME280_humidity;BME280_pressure;Samples;Min_cycle;Max_cycle;Signal;HPM_P1;HPM_P2
2022/12/03 00:02:24;;;;;;;27.40;21.75;;;2.20;99.90;;;;;;5037540;28;20033;-75
2022/12/03 00:04:50;;;;;;;28.48;23.25;;;2.20;99.90;;;;;;5046577;28;20050;-76
2022/12/03 00:07:16;;;;;;;25.52;21.13;;;2.10;99.90;;;;;;5051897;28;20037;-75
2022/12/03 00:09:42;;;;;;;24.27;21.73;;;2.30;99.90;;;;;;5038182;28;20022;-75
2022/12/03 00:12:08;;;;;;;24.58;21.55;;;2.10;99.90;;;;;;5028965;28;20822;-74
2022/12/03 00:14:33;;;;;;;20.02;17.88;;;2.20;99.90;;;;;;5035487;28;20121;-76
2022/12/03 00:16:59;;;;;;;26.23;21.90;;;2.20;99.90;;;;;;5035392;28;20364;-75
2022/12/03 00:19:25;;;;;;;24.65;19.85;;;2.20;99.90;;;;;;5052333;28;20098;-75
2022/12/03 00:21:51;;;;;;;29.92;22.95;;;2.20;99.90;;;;;;5033743;28;20033;-75
2022/12/03 00:24:16;;;;;;;25.27;22.63;;;2.20;99.90;;;;;;5035065;28;20044;-75
2022/12/03 00:26:43;;;;;;;26.95;21.80;;;2.20;99.90;;;;;;5035259;28;20029;-75
2022/12/03 00:29:10;;;;;;;24.42;19.90;;;2.20;99.90;;;;;;5035772;28;20059;-76
2022/12/03 00:31:36;;;;;;;29.88;22.30;;;2.30;99.90;;;;;;5037970;28;20414;-76
2022/12/03 00:34:01;;;;;;;21.40;17.10;;;2.20;99.90;;;;;;5035879;28;20053;-75
2022/12/03 00:36:27;;;;;;;21.85;18.40;;;2.20;99.90;;;;;;5034873;28;20087;-75
2022/12/03 00:38:53;;;;;;;28.80;21.23;;;2.20;99.90;;;;;;5035405;28;20030;-75
2022/12/03 00:41:18;;;;;;;24.35;19.98;;;2.20;99.90;;;;;;5027562;28;20050;-76
2022/12/03 00:43:44;;;;;;;30.98;22.60;;;2.20;99.90;;;;;;5037490;28;20057;-76
2022/12/03 00:46:11;;;;;;;26.60;21.33;;;2.20;99.90;;;;;;5042844;28;20033;-75
2022/12/03 00:48:37;;;;;;;22.50;20.10;;;2.20;99.90;;;;;;5029396;28;20042;-75
2022/12/03 00:51:03;;;;;;;30.45;22.67;;;2.20;99.90;;;;;;5047111;28;20040;-76
2022/12/03 00:53:29;;;;;;;23.50;20.67;;;2.20;99.90;;;;;;5010787;28;20029;-75
2022/12/03 00:55:54;;;;;;;27.45;21.90;;;2.20;99.90;;;;;;5025981;28;20041;-75
2022/12/03 00:58:20;;;;;;;24.35;21.08;;;2.20;99.90;;;;;;5026072;28;20026;-75
2022/12/03 01:00:46;;;;;;;23.63;20.17;;;2.20;99.90;;;;;;5009375;28;20025;-76
2022/12/03 01:03:12;;;;;;;25.05;19.80;;;2.20;99.90;;;;;;5035004;28;20032;-74
2022/12/03 01:05:37;;;;;;;28.90;23.13;;;2.20;99.90;;;;;;5045798;28;20037;-75
2022/12/03 01:08:04;;;;;;;23.45;20.80;;;2.20;99.90;;;;;;5025711;28;20038;-76
2022/12/03 01:10:30;;;;;;;28.42;20.88;;;2.20;99.90;;;;;;5026827;28;20026;-75
2022/12/03 01:12:56;;;;;;;22.58;20.23;;;2.20;99.90;;;;;;5027122;28;20045;-75
2022/12/03 01:15:22;;;;;;;23.17;18.73;;;2.20;99.90;;;;;;5026851;28;20041;-75
2022/12/03 01:17:48;;;;;;;26.98;21.85;;;2.20;99.90;;;;;;5026966;28;20026;-75
2022/12/03 01:20:13;;;;;;;28.70;22.60;;;2.20;99.90;;;;;;5025548;28;20044;-76
2022/12/03 01:22:39;;;;;;;28.65;21.33;;;2.20;99.90;;;;;;5026975;28;20041;-75
2022/12/03 01:25:06;;;;;;;29.83;23.55;;;2.20;99.90;;;;;;5028848;28;20029;-75
2022/12/03 01:27:31;;;;;;;30.58;21.17;;;2.20;99.90;;;;;;5045163;28;20029;-75
2022/12/03 01:29:57;;;;;;;27.95;23.25;;;2.20;99.90;;;;;;5045161;28;20117;-75
2022/12/03 01:32:23;;;;;;;26.98;22.13;;;2.20;99.90;;;;;;5012204;28;20033;-76
2022/12/03 01:34:54;;;;;;;26.52;21.55;;;2.20;99.90;;;;;;5046426;28;20577;-75
2022/12/03 01:37:22;;;;;;;27.55;22.52;;;2.20;99.90;;;;;;5044729;28;20022;-76
2022/12/03 01:39:48;;;;;;;28.10;21.73;;;2.20;99.90;;;;;;5026590;28;20056;-75
2022/12/03 01:42:21;;;;;;;28.00;23.05;;;2.20;99.90;;;;;;5025279;28;20034;-75
2022/12/03 01:44:47;;;;;;;32.40;25.58;;;2.20;99.90;;;;;;5025093;28;20025;-76
2022/12/03 01:47:17;;;;;;;28.38;22.35;;;2.30;99.90;;;;;;5024612;28;20022;-75
2022/12/03 01:49:51;;;;;;;30.57;25.13;;;2.30;99.90;;;;;;5026404;28;20034;-75
2022/12/03 01:52:21;;;;;;;27.95;22.42;;;2.30;99.90;;;;;;5027723;28;20396;-75
2022/12/03 01:54:51;;;;;;;27.02;24.08;;;2.20;99.90;;;;;;5046044;28;20029;-75
2022/12/03 01:57:19;;;;;;;25.20;22.55;;;2.30;99.90;;;;;;5044739;28;20021;-76
2022/12/03 01:59:45;;;;;;;29.95;23.55;;;2.30;99.90;;;;;;5044814;28;20057;-76
2022/12/03 02:02:22;;;;;;;24.10;20.75;;;2.20;99.90;;;;;;5046009;28;20025;-76
2022/12/03 02:04:51;;;;;;;25.27;19.80;;;2.30;99.90;;;;;;5045726;28;20049;-76
2022/12/03 02:07:21;;;;;;;30.77;22.48;;;2.20;99.90;;;;;;5044059;28;20030;-75
2022/12/03 02:09:47;;;;;;;28.90;22.90;;;2.10;99.90;;;;;;5044652;28;20037;-73
2022/12/03 02:12:18;;;;;;;28.05;22.40;;;2.10;99.90;;;;;;5045661;28;20097;-75
2022/12/03 02:14:44;;;;;;;26.20;20.05;;;2.10;99.90;;;;;;5044455;28;20029;-76
2022/12/03 02:17:11;;;;;;;24.33;21.85;;;2.00;99.90;;;;;;5045950;28;20108;-75
2022/12/03 02:19:36;;;;;;;23.80;19.85;;;2.00;99.90;;;;;;5044485;28;20033;-76
2022/12/03 02:22:20;;;;;;;23.33;20.85;;;2.00;99.90;;;;;;5038962;28;20053;-74
2022/12/03 02:25:10;;;;;;;26.48;20.17;;;2.00;99.90;;;;;;5025907;28;20033;-73
2022/12/03 02:27:36;;;;;;;23.65;20.23;;;2.00;99.90;;;;;;5024596;28;20041;-74
2022/12/03 02:30:04;;;;;;;26.55;20.15;;;2.00;99.90;;;;;;5025953;28;20037;-74
2022/12/03 02:32:29;;;;;;;22.65;20.23;;;2.00;99.90;;;;;;5024358;28;20037;-74
2022/12/03 02:34:56;;;;;;;23.13;20.70;;;2.00;99.90;;;;;;5024403;28;20034;-74
2022/12/03 02:37:26;;;;;;;21.35;19.13;;;2.00;99.90;;;;;;5034253;28;20021;-74
2022/12/03 02:39:59;;;;;;;24.75;21.48;;;2.00;99.90;;;;;;5044066;28;20026;-74
2022/12/03 02:42:34;;;;;;;24.25;21.50;;;2.00;99.90;;;;;;5045523;28;20140;-73
2022/12/03 02:45:30;;;;;;;28.45;20.90;;;2.10;99.90;;;;;;5045430;28;20112;-74
2022/12/03 02:48:10;;;;;;;28.55;21.45;;;2.10;99.90;;;;;;5044805;28;20050;-74
2022/12/03 02:50:40;;;;;;;30.13;20.98;;;2.10;99.90;;;;;;5045606;28;20067;-76
2022/12/03 02:53:10;;;;;;;29.45;20.95;;;2.10;99.90;;;;;;5026304;28;20579;-74
2022/12/03 02:55:37;;;;;;;23.10;19.20;;;2.20;99.90;;;;;;5026764;28;20033;-76
2022/12/03 02:58:03;;;;;;;21.55;19.15;;;2.20;99.90;;;;;;5025743;28;20034;-76
2022/12/03 03:00:30;;;;;;;22.88;20.35;;;2.20;99.90;;;;;;5028048;28;20430;-75
2022/12/03 03:02:56;;;;;;;26.20;20.27;;;2.20;99.90;;;;;;5030263;28;20026;-74
2022/12/03 03:05:23;;;;;;;30.05;21.48;;;2.20;99.90;;;;;;5048891;28;20105;-74
2022/12/03 03:07:52;;;;;;;28.90;21.25;;;2.20;99.90;;;;;;5027201;28;20088;-75
2022/12/03 03:10:22;;;;;;;24.05;20.73;;;2.20;99.90;;;;;;5044435;28;20040;-75
2022/12/03 03:12:48;;;;;;;27.75;21.42;;;2.20;99.90;;;;;;5027826;28;20022;-76
2022/12/03 03:15:15;;;;;;;21.65;19.35;;;2.20;99.90;;;;;;5044315;28;20040;-76
2022/12/03 03:17:41;;;;;;;25.42;18.70;;;2.20;99.90;;;;;;5029084;28;20033;-74
2022/12/03 03:20:08;;;;;;;24.83;20.38;;;2.20;99.90;;;;;;5044146;28;20029;-74
2022/12/03 03:22:38;;;;;;;22.63;19.83;;;2.20;99.90;;;;;;5030907;28;20033;-74
2022/12/03 03:25:06;;;;;;;25.45;20.95;;;2.20;99.90;;;;;;5048789;28;20510;-76
2022/12/03 03:27:32;;;;;;;24.80;20.33;;;2.20;99.90;;;;;;5048649;28;20029;-74
2022/12/03 03:29:59;;;;;;;29.35;21.52;;;2.20;99.90;;;;;;5047144;28;20433;-73
2022/12/03 03:32:26;;;;;;;24.83;21.85;;;2.20;99.90;;;;;;5047411;28;20091;-73
2022/12/03 03:34:53;;;;;;;24.75;21.42;;;2.20;99.90;;;;;;5048642;28;20041;-75
2022/12/03 03:37:18;;;;;;;24.90;22.23;;;2.20;99.90;;;;;;5043337;28;20034;-74
2022/12/03 03:39:44;;;;;;;28.73;22.02;;;2.20;99.90;;;;;;5028594;28;20060;-76
2022/12/03 03:42:10;;;;;;;25.95;22.63;;;2.20;99.90;;;;;;5028446;28;20101;-73
2022/12/03 03:44:36;;;;;;;22.63;19.95;;;2.10;99.90;;;;;;5027366;28;20064;-75
2022/12/03 03:47:03;;;;;;;30.08;23.27;;;2.20;99.90;;;;;;5011038;28;20034;-75
2022/12/03 03:49:29;;;;;;;23.73;20.95;;;2.10;99.90;;;;;;5028373;28;20061;-76
2022/12/03 03:51:54;;;;;;;28.50;22.95;;;2.20;99.90;;;;;;5012722;28;20113;-75
2022/12/03 03:54:21;;;;;;;25.40;20.23;;;2.10;99.90;;;;;;5046770;28;20041;-74
2022/12/03 03:56:47;;;;;;;26.13;23.30;;;2.20;99.90;;;;;;5046857;28;20437;-74
2022/12/03 03:59:14;;;;;;;23.95;21.27;;;2.20;99.90;;;;;;5030246;28;20040;-74
2022/12/03 04:01:40;;;;;;;28.75;24.98;;;2.10;99.90;;;;;;5046883;28;20055;-74
2022/12/03 04:04:20;;;;;;;29.05;23.98;;;2.10;99.90;;;;;;5046400;28;20522;-73
2022/12/03 04:06:46;;;;;;;34.13;23.88;;;2.20;99.90;;;;;;5046024;28;20033;-75
2022/12/03 04:09:12;;;;;;;28.73;25.48;;;2.20;99.90;;;;;;5047474;28;20057;-74
2022/12/03 04:14:22;;;;;;;26.67;22.42;;;2.10;99.90;;;;;;5047784;28;20036;-74
2022/12/03 04:16:47;;;;;;;29.83;24.02;;;2.20;99.90;;;;;;5046315;28;20022;-74
2022/12/03 04:19:13;;;;;;;25.42;20.17;;;2.20;99.90;;;;;;5047773;28;20029;-73
2022/12/03 04:24:24;;;;;;;22.45;20.02;;;2.20;99.90;;;;;;5026483;28;20105;-73
2022/12/03 04:29:35;;;;;;;23.77;21.25;;;2.20;99.90;;;;;;5026250;28;20348;-73
2022/12/03 04:37:30;;;;;;;24.33;21.00;;;2.10;99.90;;;;;;5040549;28;20034;-76
2022/12/03 04:39:56;;;;;;;30.70;24.38;;;2.20;99.90;;;;;;5045897;28;20057;-75
2022/12/03 04:42:24;;;;;;;29.23;23.85;;;2.10;99.90;;;;;;5045407;28;20042;-74
2022/12/03 04:44:50;;;;;;;30.10;23.63;;;2.10;99.90;;;;;;5047382;28;20029;-76
2022/12/03 04:47:18;;;;;;;33.90;26.10;;;2.10;99.90;;;;;;5047155;28;20037;-75
2022/12/03 04:49:49;;;;;;;33.78;25.38;;;2.10;99.90;;;;;;5045767;28;20044;-74
2022/12/03 04:52:17;;;;;;;31.60;23.60;;;2.10;99.90;;;;;;5045309;28;20044;-73
2022/12/03 04:54:42;;;;;;;27.40;24.30;;;2.10;99.90;;;;;;5046896;28;20030;-74
2022/12/03 04:57:09;;;;;;;29.23;24.10;;;2.00;99.90;;;;;;5046911;28;20041;-76
2022/12/03 04:59:36;;;;;;;34.25;26.58;;;2.00;99.90;;;;;;5046936;28;20034;-73
2022/12/03 05:02:03;;;;;;;30.35;25.77;;;2.00;99.90;;;;;;5046906;28;20030;-73
2022/12/03 05:04:28;;;;;;;32.22;26.08;;;2.00;99.90;;;;;;5045153;28;20050;-74
2022/12/03 05:06:55;;;;;;;28.45;25.42;;;1.90;99.90;;;;;;5045861;28;20351;-73
2022/12/03 05:09:20;;;;;;;30.55;26.13;;;1.90;99.90;;;;;;5046634;28;20109;-74
2022/12/03 05:11:46;;;;;;;32.95;27.52;;;2.00;99.90;;;;;;5028787;28;20033;-73
2022/12/03 05:14:12;;;;;;;41.25;29.10;;;2.00;99.90;;;;;;5046729;28;20025;-74
2022/12/03 05:16:38;;;;;;;37.47;25.95;;;2.00;99.90;;;;;;5046509;28;20108;-74
2022/12/03 05:19:06;;;;;;;32.50;25.50;;;2.00;99.90;;;;;;5045291;28;20075;-73
2022/12/03 05:21:32;;;;;;;32.05;28.65;;;2.00;99.90;;;;;;5045106;28;20112;-74
2022/12/03 05:23:58;;;;;;;31.70;25.30;;;2.00;99.90;;;;;;5026314;28;20158;-74
2022/12/03 05:26:24;;;;;;;32.25;27.02;;;1.90;99.90;;;;;;5027477;28;20387;-76
2022/12/03 05:28:49;;;;;;;33.47;26.63;;;1.90;99.90;;;;;;5026593;28;20041;-74
2022/12/03 05:31:16;;;;;;;32.08;26.75;;;2.00;99.90;;;;;;5025470;28;20519;-74
2022/12/03 05:33:42;;;;;;;28.35;25.08;;;2.00;99.90;;;;;;5025305;28;20022;-74
2022/12/03 05:36:08;;;;;;;33.20;27.45;;;2.00;99.90;;;;;;5040913;28;20025;-74
2022/12/03 05:38:34;;;;;;;32.90;29.02;;;2.00;99.90;;;;;;5044404;28;20036;-75
2022/12/03 05:41:00;;;;;;;31.52;26.00;;;2.00;99.90;;;;;;5044212;28;20025;-73
2022/12/03 05:43:26;;;;;;;34.58;27.77;;;1.90;99.90;;;;;;5044568;28;20124;-75
2022/12/03 05:45:51;;;;;;;36.60;30.70;;;2.00;99.90;;;;;;5046180;28;20031;-75
2022/12/03 05:48:18;;;;;;;33.08;26.40;;;2.00;99.90;;;;;;5045983;28;20052;-75
2022/12/03 05:50:45;;;;;;;31.83;25.63;;;2.00;99.90;;;;;;5046301;28;20029;-76
2022/12/03 05:53:14;;;;;;;;;;;2.00;99.90;;;;;;5045151;28;20029;-73
2022/12/03 05:55:41;;;;;;;35.58;28.20;;;2.00;99.90;;;;;;5044716;28;19944;-75
2022/12/03 05:58:07;;;;;;;29.27;25.25;;;1.90;99.90;;;;;;5026287;28;20018;-76
2022/12/03 06:00:38;;;;;;;40.38;28.80;;;1.90;99.90;;;;;;5044526;28;20055;-76
2022/12/03 06:03:05;;;;;;;35.80;29.33;;;1.90;99.90;;;;;;5045828;28;20037;-74
2022/12/03 06:05:31;;;;;;;40.00;28.05;;;1.90;99.90;;;;;;5044558;28;20068;-74
2022/12/03 06:07:56;;;;;;;43.85;28.25;;;1.90;99.90;;;;;;5044616;28;20037;-75
2022/12/03 06:10:24;;;;;;;36.30;27.85;;;1.90;99.90;;;;;;5044274;28;20047;-74
2022/12/03 06:12:50;;;;;;;35.53;27.27;;;1.90;99.90;;;;;;5044113;28;20052;-74
2022/12/03 06:15:16;;;;;;;33.60;28.08;;;1.90;99.90;;;;;;5044273;28;20518;-76
2022/12/03 06:17:42;;;;;;;34.70;26.70;;;1.90;99.90;;;;;;5044398;28;20030;-76
2022/12/03 06:20:12;;;;;;;36.20;27.60;;;2.00;99.90;;;;;;5042910;28;20029;-76
2022/12/03 06:22:38;;;;;;;;;;;2.00;99.90;;;;;;5029710;28;20033;-72
2022/12/03 06:25:04;;;;;;;39.20;25.35;;;2.00;99.90;;;;;;5040589;28;19960;-73
2022/12/03 06:27:30;;;;;;;36.13;26.23;;;2.00;99.90;;;;;;5039751;28;20092;-73
2022/12/03 06:29:56;;;;;;;30.50;27.20;;;2.10;99.90;;;;;;5026574;28;20033;-76
2022/12/03 06:32:22;;;;;;;39.47;27.00;;;2.00;99.90;;;;;;5044588;28;20075;-75
2022/12/03 06:34:47;;;;;;;31.15;24.40;;;2.00;99.90;;;;;;5042809;28;20029;-74
2022/12/03 06:37:13;;;;;;;36.55;27.67;;;2.00;99.90;;;;;;5045559;28;20035;-74
2022/12/03 06:39:39;;;;;;;30.60;23.75;;;2.00;99.90;;;;;;5036678;28;20037;-75
2022/12/03 06:42:05;;;;;;;33.33;28.40;;;2.10;99.90;;;;;;5047833;28;20093;-75
2022/12/03 06:44:30;;;;;;;34.97;27.33;;;2.00;99.90;;;;;;5015190;28;20049;-73
2022/12/03 06:46:56;;;;;;;32.60;27.33;;;2.00;99.90;;;;;;5053460;28;20132;-73
2022/12/03 06:49:22;;;;;;;29.73;25.25;;;2.00;99.90;;;;;;5029397;28;20026;-73
2022/12/03 06:51:48;;;;;;;37.30;28.92;;;2.10;99.90;;;;;;5037369;28;20069;-75
2022/12/03 06:54:14;;;;;;;32.60;26.65;;;2.00;99.90;;;;;;5030539;28;20044;-75
2022/12/03 06:56:40;;;;;;;36.13;25.05;;;2.00;99.90;;;;;;5019676;28;20104;-73
2022/12/03 06:59:06;;;;;;;39.03;30.67;;;2.00;99.90;;;;;;5028062;28;20042;-76
2022/12/03 07:01:32;;;;;;;32.28;27.70;;;2.00;99.90;;;;;;5013791;28;20033;-76
2022/12/03 07:03:58;;;;;;;30.13;24.88;;;2.00;99.90;;;;;;5039618;28;20161;-75
2022/12/03 07:06:24;;;;;;;36.55;29.67;;;2.00;99.90;;;;;;5051016;28;20121;-75
2022/12/03 07:08:50;;;;;;;29.75;26.23;;;2.00;99.90;;;;;;5031114;28;20030;-75
2022/12/03 07:11:31;;;;;;;34.88;25.83;;;2.00;99.90;;;;;;5030907;28;20081;-77
2022/12/03 07:13:59;;;;;;;34.47;27.60;;;2.00;99.90;;;;;;5038036;28;20386;-77
2022/12/03 07:16:26;;;;;;;33.72;27.33;;;1.90;99.90;;;;;;5047228;28;20026;-77
2022/12/03 07:18:52;;;;;;;34.97;27.13;;;2.00;99.90;;;;;;5014751;28;20033;-76
2022/12/03 07:21:18;;;;;;;32.85;23.98;;;2.00;99.90;;;;;;5047214;28;20083;-77
2022/12/03 07:23:43;;;;;;;28.70;23.85;;;2.00;99.90;;;;;;5048540;28;20037;-76
2022/12/03 07:26:10;;;;;;;30.65;25.75;;;2.00;99.90;;;;;;5031026;28;20075;-77
2022/12/03 07:28:36;;;;;;;42.92;29.27;;;2.00;99.90;;;;;;5042446;28;20049;-76
2022/12/03 07:31:01;;;;;;;33.30;26.08;;;2.00;99.90;;;;;;5033480;28;20022;-77
2022/12/03 07:33:28;;;;;;;36.30;28.70;;;1.90;99.90;;;;;;5029022;28;20037;-76
2022/12/03 07:35:56;;;;;;;31.17;27.80;;;2.00;99.90;;;;;;5048365;28;20437;-76
2022/12/03 07:38:23;;;;;;;37.00;26.20;;;2.00;99.90;;;;;;5047045;28;20088;-76
2022/12/03 07:40:49;;;;;;;31.73;26.25;;;2.00;99.90;;;;;;5028998;28;20025;-77
2022/12/03 07:43:15;;;;;;;33.42;24.10;;;2.00;99.90;;;;;;5043584;28;20101;-76
2022/12/03 07:45:41;;;;;;;32.35;26.02;;;2.10;99.90;;;;;;5038837;28;20022;-76
2022/12/03 07:48:07;;;;;;;42.35;26.90;;;2.10;99.90;;;;;;5016429;28;20018;-77
2022/12/03 07:50:33;;;;;;;32.72;23.92;;;2.10;99.90;;;;;;5037716;28;20029;-75
2022/12/03 07:52:59;;;;;;;39.28;30.10;;;2.10;99.90;;;;;;5028919;28;20018;-75
2022/12/03 07:55:26;;;;;;;42.67;25.48;;;2.10;99.90;;;;;;5010518;28;20033;-74
2022/12/03 07:57:51;;;;;;;31.40;25.60;;;2.10;99.90;;;;;;4989695;28;20029;-75
2022/12/03 08:00:21;;;;;;;35.88;26.00;;;2.10;99.90;;;;;;5036740;28;20022;-75
2022/12/03 08:02:47;;;;;;;30.40;25.05;;;2.20;99.90;;;;;;5021396;28;20036;-76
2022/12/03 08:05:12;;;;;;;45.28;29.45;;;2.20;99.90;;;;;;5044537;28;20049;-74
2022/12/03 08:07:38;;;;;;;29.70;26.02;;;2.20;99.90;;;;;;5034150;28;20032;-74
2022/12/03 08:10:05;;;;;;;33.38;26.25;;;2.20;99.90;;;;;;5036692;28;20093;-77
2022/12/03 08:12:39;;;;;;;31.70;27.42;;;2.20;99.90;;;;;;5042179;28;20026;-75
2022/12/03 08:15:26;;;;;;;29.52;23.23;;;2.20;99.90;;;;;;5034804;28;20047;-76
2022/12/03 08:18:00;;;;;;;36.22;23.02;;;2.30;99.90;;;;;;5028017;28;20017;-77
2022/12/03 08:20:32;;;;;;;34.17;28.05;;;2.30;99.90;;;;;;5040201;28;20057;-77
2022/12/03 08:22:58;;;;;;;30.88;23.38;;;2.20;99.90;;;;;;5036402;28;20372;-77
2022/12/03 08:25:31;;;;;;;32.17;24.92;;;2.30;99.90;;;;;;5035610;28;20030;-77
2022/12/03 08:28:11;;;;;;;35.97;26.75;;;2.30;99.90;;;;;;5020341;28;20022;-75
2022/12/03 08:30:39;;;;;;;35.88;24.90;;;2.30;99.90;;;;;;5035989;28;20029;-77
2022/12/03 08:33:34;;;;;;;33.35;25.05;;;2.30;99.90;;;;;;5036908;28;20022;-77
2022/12/03 08:36:22;;;;;;;27.40;24.48;;;2.40;99.90;;;;;;5033485;28;20028;-77
2022/12/03 08:39:00;;;;;;;36.25;24.02;;;2.40;99.90;;;;;;5027474;28;20502;-76
2022/12/03 08:44:16;;;;;;;32.05;25.00;;;2.60;99.90;;;;;;5037333;28;20029;-75
2022/12/03 08:46:41;;;;;;;37.92;26.73;;;2.70;99.90;;;;;;5037729;28;20033;-76
2022/12/03 08:49:08;;;;;;;33.88;24.52;;;2.70;99.90;;;;;;5033662;28;20071;-76
2022/12/03 08:51:34;;;;;;;36.75;26.05;;;2.70;99.90;;;;;;5033437;28;20029;-77
2022/12/03 08:54:06;;;;;;;35.30;28.00;;;2.70;99.90;;;;;;5036868;28;20029;-77
2022/12/03 08:56:35;;;;;;;29.75;24.05;;;2.70;99.90;;;;;;5033360;28;20028;-77
2022/12/03 08:59:30;;;;;;;39.13;26.83;;;2.80;99.90;;;;;;5042567;28;20057;-77
2022/12/03 09:01:58;;;;;;;40.08;25.95;;;2.80;99.90;;;;;;5034998;28;20038;-77
2022/12/03 09:04:37;;;;;;;31.80;24.70;;;2.80;99.90;;;;;;5035007;28;20054;-77
2022/12/03 09:07:03;;;;;;;30.45;22.92;;;2.80;99.90;;;;;;5032738;28;20053;-77
2022/12/03 09:09:29;;;;;;;34.25;27.10;;;2.80;99.90;;;;;;5037478;28;20037;-76
2022/12/03 09:11:55;;;;;;;35.45;25.13;;;2.80;99.90;;;;;;5042567;28;20013;-76
2022/12/03 09:14:22;;;;;;;33.58;27.58;;;2.80;99.90;;;;;;5050055;28;20076;-77
2022/12/03 09:16:54;;;;;;;33.40;24.50;;;2.80;99.90;;;;;;5033227;28;20037;-77
2022/12/03 09:19:23;;;;;;;37.13;26.77;;;2.70;99.90;;;;;;5035433;28;20375;-75
2022/12/03 09:21:49;;;;;;;34.08;22.92;;;2.70;99.90;;;;;;5050061;28;20034;-77
2022/12/03 09:24:15;;;;;;;41.08;28.15;;;2.70;99.90;;;;;;5027056;28;20044;-75
2022/12/03 09:26:41;;;;;;;35.88;27.67;;;2.70;99.90;;;;;;5033583;28;20069;-77
2022/12/03 09:29:06;;;;;;;39.45;26.73;;;2.70;99.90;;;;;;5034903;28;20034;-77
2022/12/03 09:31:33;;;;;;;36.58;25.42;;;2.70;99.90;;;;;;5017747;28;20029;-77
2022/12/03 09:34:03;;;;;;;36.60;27.15;;;2.70;99.90;;;;;;5034632;28;20034;-77
2022/12/03 09:36:28;;;;;;;33.97;27.15;;;2.70;99.90;;;;;;5032985;28;20030;-75
2022/12/03 09:38:55;;;;;;;36.65;23.50;;;2.70;99.90;;;;;;5041847;28;20032;-77
2022/12/03 09:41:22;;;;;;;33.45;23.30;;;2.80;99.90;;;;;;5013521;28;20026;-77
2022/12/03 09:43:48;;;;;;;32.95;26.52;;;2.80;99.90;;;;;;5027405;28;20034;-75
2022/12/03 09:46:15;;;;;;;41.15;26.33;;;2.90;99.90;;;;;;5044378;28;20038;-75
2022/12/03 09:48:41;;;;;;;30.60;21.63;;;2.90;99.90;;;;;;5042646;28;20043;-75
2022/12/03 09:51:09;;;;;;;31.95;25.38;;;3.00;99.90;;;;;;5030879;28;20025;-75
2022/12/03 09:53:35;;;;;;;43.08;26.02;;;3.00;99.90;;;;;;5025171;28;20443;-75
2022/12/03 09:56:02;;;;;;;30.02;21.98;;;2.80;99.90;;;;;;5025241;28;20179;-75
2022/12/03 09:58:31;;;;;;;31.33;23.02;;;2.90;99.90;;;;;;5025206;28;20037;-75
2022/12/03 10:00:57;;;;;;;31.13;22.63;;;2.90;99.90;;;;;;5026146;28;20052;-75
2022/12/03 10:03:29;;;;;;;29.48;24.50;;;2.90;99.90;;;;;;5043442;28;20030;-75
2022/12/03 10:05:55;;;;;;;26.23;21.20;;;3.00;99.90;;;;;;5044439;28;20030;-73
2022/12/03 10:08:22;;;;;;;29.27;21.20;;;3.00;99.90;;;;;;5043799;28;20444;-75
2022/12/03 10:10:51;;;;;;;33.70;21.58;;;3.20;99.90;;;;;;5045385;28;20033;-76
2022/12/03 10:13:29;;;;;;;23.07;19.63;;;3.20;99.90;;;;;;5045637;28;20080;-78
2022/12/03 10:15:59;;;;;;;35.00;22.60;;;3.10;99.90;;;;;;5039710;28;20025;-75
2022/12/03 10:18:28;;;;;;;37.22;23.08;;;3.00;99.90;;;;;;5040424;28;20446;-77
2022/12/03 10:20:55;;;;;;;26.60;17.58;;;3.50;99.90;;;;;;5017022;28;20029;-75
2022/12/03 10:23:28;;;;;;;26.88;20.65;;;3.20;99.90;;;;;;5028177;28;20056;-76
2022/12/03 10:26:01;;;;;;;30.73;20.08;;;3.00;99.90;;;;;;5037314;28;20026;-75
2022/12/03 10:28:33;;;;;;;30.35;21.35;;;3.10;99.90;;;;;;5030833;28;20050;-75
2022/12/03 10:31:00;;;;;;;30.38;20.63;;;3.10;99.90;;;;;;5045414;28;20480;-75
2022/12/03 10:33:32;;;;;;;29.60;20.73;;;3.10;99.90;;;;;;5040570;28;20037;-75
2022/12/03 10:36:13;;;;;;;29.08;21.48;;;3.10;99.90;;;;;;5030634;28;20026;-75
2022/12/03 10:38:39;;;;;;;28.58;21.55;;;3.20;99.90;;;;;;5013260;28;20030;-75
2022/12/03 10:41:23;;;;;;;24.25;20.70;;;3.20;99.90;;;;;;5034452;28;20372;-75
2022/12/03 10:43:49;;;;;;;27.92;19.70;;;3.30;99.90;;;;;;5043695;28;20055;-78
2022/12/03 10:46:17;;;;;;;30.58;21.08;;;3.30;99.90;;;;;;5034091;28;20069;-75
2022/12/03 10:48:43;;;;;;;26.80;20.23;;;3.30;99.90;;;;;;5029809;28;20052;-75
2022/12/03 10:51:21;;;;;;;26.42;19.25;;;3.20;99.90;;;;;;5043482;28;20459;-75
2022/12/03 10:53:49;;;;;;;31.27;22.38;;;3.20;99.90;;;;;;5045032;28;20033;-76
2022/12/03 10:56:23;;;;;;;28.88;22.80;;;3.20;99.90;;;;;;5042031;28;20037;-77
2022/12/03 10:58:49;;;;;;;35.22;23.63;;;3.10;99.90;;;;;;5044109;28;20029;-77
2022/12/03 11:01:22;;;;;;;28.48;22.50;;;3.10;99.90;;;;;;5036013;28;20045;-75
2022/12/03 11:03:48;;;;;;;33.05;24.95;;;3.20;99.90;;;;;;5051036;28;20126;-76
2022/12/03 11:06:21;;;;;;;33.45;22.13;;;3.20;99.90;;;;;;5043642;28;20097;-75
2022/12/03 11:08:52;;;;;;;31.80;23.50;;;3.20;99.90;;;;;;5044010;28;20087;-75
2022/12/03 11:11:23;;;;;;;29.20;21.30;;;3.00;99.90;;;;;;5040492;28;20037;-75
2022/12/03 11:13:59;;;;;;;25.60;20.58;;;3.10;99.90;;;;;;5038783;28;20030;-75
2022/12/03 11:16:40;;;;;;;31.50;23.10;;;3.10;99.90;;;;;;5025978;28;20026;-75
2022/12/03 11:19:12;;;;;;;30.60;19.58;;;3.10;99.90;;;;;;5008049;28;20071;-75
2022/12/03 11:22:03;;;;;;;35.17;25.58;;;3.00;99.90;;;;;;5032279;28;20057;-75
2022/12/03 11:24:38;;;;;;;28.85;22.90;;;3.00;99.90;;;;;;5031567;28;20088;-75
2022/12/03 11:27:05;;;;;;;33.25;25.50;;;3.10;99.90;;;;;;5027766;28;20095;-75
2022/12/03 11:29:55;;;;;;;34.92;24.73;;;3.20;99.90;;;;;;5011510;28;20106;-75
2022/12/03 11:32:42;;;;;;;34.67;22.85;;;3.20;99.90;;;;;;5031979;28;20026;-75
2022/12/03 11:35:25;;;;;;;30.98;23.63;;;3.30;99.90;;;;;;5067121;28;20025;-75
2022/12/03 11:37:52;;;;;;;34.17;23.17;;;3.30;99.90;;;;;;5036984;28;20389;-75
2022/12/03 11:40:18;;;;;;;33.92;25.27;;;3.30;99.90;;;;;;5046821;28;20041;-75
2022/12/03 11:42:46;;;;;;;36.72;21.33;;;3.30;99.90;;;;;;5046868;28;20032;-75
2022/12/03 11:45:14;;;;;;;33.22;24.75;;;3.30;99.90;;;;;;5030048;28;20107;-75
2022/12/03 11:47:44;;;;;;;40.38;24.15;;;3.40;99.90;;;;;;5032347;28;20479;-73
2022/12/03 11:50:19;;;;;;;25.38;22.70;;;3.50;99.90;;;;;;5057166;28;20033;-74
2022/12/03 11:52:48;;;;;;;32.22;20.58;;;3.50;99.90;;;;;;5040665;28;20052;-76
2022/12/03 11:55:20;;;;;;;31.13;24.02;;;3.40;99.90;;;;;;5033500;28;20021;-73
2022/12/03 11:58:00;;;;;;;35.75;25.85;;;3.20;99.90;;;;;;5026931;28;20052;-74
2022/12/03 12:00:27;;;;;;;32.20;27.25;;;3.10;99.90;;;;;;5033366;28;20037;-74
2022/12/03 12:02:55;;;;;;;37.95;25.85;;;3.10;99.90;;;;;;5046893;28;20398;-74
2022/12/03 12:05:32;;;;;;;31.65;24.02;;;3.10;99.90;;;;;;5032387;28;20050;-75
2022/12/03 12:07:59;;;;;;;37.33;25.60;;;3.30;99.90;;;;;;5027913;28;20387;-75
2022/12/03 12:10:43;;;;;;;28.45;22.65;;;3.40;99.90;;;;;;5027659;28;20025;-75
2022/12/03 12:13:34;;;;;;;36.78;24.17;;;3.50;99.90;;;;;;5041017;28;20029;-77
2022/12/03 12:16:04;;;;;;;33.22;23.73;;;3.60;99.90;;;;;;5046688;28;20065;-77
2022/12/03 12:18:43;;;;;;;43.80;21.77;;;3.60;99.90;;;;;;5046816;28;20479;-77
2022/12/03 12:21:43;;;;;;;28.73;21.13;;;3.70;99.90;;;;;;5026191;28;20049;-76
2022/12/03 12:24:28;;;;;;;;;;;3.50;99.90;;;;;;5030060;28;20034;-73
2022/12/03 12:26:55;;;;;;;39.55;24.77;;;3.50;99.90;;;;;;5026846;28;19960;-73
2022/12/03 12:29:21;;;;;;;30.38;23.48;;;3.60;99.90;;;;;;5044341;28;20029;-74
2022/12/03 12:31:48;;;;;;;29.33;21.73;;;3.60;99.90;;;;;;5045093;28;20113;-74
2022/12/03 12:34:14;;;;;;;29.40;24.45;;;3.60;99.90;;;;;;5046099;28;20022;-75
2022/12/03 12:36:40;;;;;;;29.50;22.80;;;3.60;99.90;;;;;;5017726;28;20113;-76
2022/12/03 12:39:14;;;;;;;36.85;25.10;;;3.80;99.90;;;;;;5025768;28;20038;-76
2022/12/03 12:41:40;;;;;;;28.88;22.50;;;3.90;99.90;;;;;;5026185;28;20057;-76
2022/12/03 12:44:11;;;;;;;39.85;24.90;;;3.80;99.90;;;;;;5028626;28;20040;-74
2022/12/03 12:46:38;;;;;;;32.45;22.75;;;3.90;99.90;;;;;;5045754;28;20036;-75
2022/12/03 12:49:11;;;;;;;27.67;22.13;;;4.00;99.90;;;;;;5046120;28;20056;-76
2022/12/03 12:51:43;;;;;;;33.55;24.50;;;3.90;99.90;;;;;;5045853;28;20033;-76
2022/12/03 12:54:11;;;;;;;29.92;22.10;;;3.90;99.90;;;;;;5036804;28;20497;-75
2022/12/03 12:56:40;;;;;;;36.97;26.98;;;4.00;99.90;;;;;;5026729;28;20034;-77
2022/12/03 12:59:18;;;;;;;31.38;22.98;;;4.00;99.90;;;;;;5030118;28;20033;-76
2022/12/03 13:01:46;;;;;;;29.00;23.42;;;3.90;99.90;;;;;;5045583;28;20040;-77
2022/12/03 13:04:15;;;;;;;36.40;24.58;;;4.00;99.90;;;;;;5046589;28;20442;-76